createdAt,value
2022-10-05T00:01:39.090Z,6.90
2022-10-05T00:04:22.986Z,6.43
2022-10-05T00:07:02.205Z,10.87
2022-10-05T00:09:33.448Z,4.25
2022-10-05T00:12:12.775Z,9.23
2022-10-05T00:14:41.244Z,4.95
2022-10-05T00:17:17.931Z,4.03
2022-10-05T00:19:47.660Z,4.97
2022-10-05T00:22:22.084Z,5.80
2022-10-05T00:24:56.320Z,8.57
2022-10-05T00:27:28.055Z,6.53
2022-10-05T00:30:00.915Z,6.32
2022-10-05T00:32:29.193Z,8.85
2022-10-05T00:34:58.830Z,5.63
2022-10-05T00:37:27.081Z,6.78
2022-10-05T00:39:55.526Z,6.22
2022-10-05T00:42:59.015Z,7.07
2022-10-05T00:45:33.923Z,5.10
2022-10-05T00:48:17.447Z,8.63
2022-10-05T00:51:06.880Z,4.13
2022-10-05T00:54:08.320Z,7.10
2022-10-05T00:57:01.601Z,4.43
2022-10-05T01:00:00.619Z,5.15
2022-10-05T01:02:37.120Z,6.63
2022-10-05T01:05:24.830Z,5.38
2022-10-05T01:08:04.007Z,6.00
2022-10-05T01:10:45.370Z,6.03
2022-10-05T01:13:40.808Z,5.45
2022-10-05T01:16:35.440Z,4.72
2022-10-05T01:19:27.935Z,5.10
2022-10-05T01:22:06.455Z,3.80
2022-10-05T01:25:11.507Z,5.43
2022-10-05T01:27:41.630Z,3.95
2022-10-05T01:30:20.005Z,5.70
2022-10-05T01:33:06.726Z,6.95
2022-10-05T01:35:35.625Z,5.97
2022-10-05T01:38:37.770Z,6.72
2022-10-05T01:41:34.085Z,6.80
2022-10-05T01:44:25.605Z,4.88
2022-10-05T01:47:15.670Z,6.93
2022-10-05T01:49:59.370Z,6.38
2022-10-05T01:52:53.084Z,5.93
2022-10-05T01:55:31.347Z,6.97
2022-10-05T01:58:07.303Z,4.22
2022-10-05T02:00:59.588Z,5.38
2022-10-05T02:03:40.165Z,6.40
2022-10-05T02:06:22.405Z,5.15
2022-10-05T02:09:02.243Z,3.65
2022-10-05T02:11:30.725Z,5.57
2022-10-05T02:14:09.594Z,6.90
2022-10-05T02:16:44.483Z,6.20
2022-10-05T02:19:28.970Z,4.68
2022-10-05T02:22:13.450Z,3.67
2022-10-05T02:24:49.375Z,5.03
2022-10-05T02:27:25.554Z,6.68
2022-10-05T02:29:57.750Z,5.35
2022-10-05T02:32:33.925Z,7.18
2022-10-05T02:35:14.060Z,7.53
2022-10-05T02:38:10.531Z,4.43
2022-10-05T02:40:38.884Z,4.05
2022-10-05T02:43:28.940Z,7.35
2022-10-05T02:46:06.607Z,4.93
2022-10-05T02:49:00.613Z,5.07
2022-10-05T02:51:31.089Z,9.68
2022-10-05T02:54:14.240Z,4.03
2022-10-05T02:56:59.205Z,5.15
2022-10-05T02:59:39.680Z,6.60
2022-10-05T03:02:16.529Z,5.05
2022-10-05T03:04:50.400Z,6.07
2022-10-05T03:07:33.599Z,4.80
2022-10-05T03:10:27.035Z,8.18
2022-10-05T03:13:14.355Z,6.28
2022-10-05T03:16:01.105Z,4.70
2022-10-05T03:18:55.445Z,10.77
2022-10-05T03:21:42.886Z,5.83
2022-10-05T03:24:20.641Z,4.90
2022-10-05T03:27:16.770Z,5.40
2022-10-05T03:29:58.030Z,5.82
2022-10-05T03:32:43.466Z,7.50
2022-10-05T03:35:25.121Z,5.30
2022-10-05T03:38:18.512Z,3.88
2022-10-05T03:40:52.160Z,6.10
2022-10-05T03:43:48.141Z,10.05
2022-10-05T03:46:38.615Z,6.35
2022-10-05T03:49:18.095Z,6.50
2022-10-05T03:52:08.176Z,7.03
2022-10-05T03:54:51.607Z,5.43
2022-10-05T03:57:27.045Z,6.85
2022-10-05T04:00:07.526Z,6.22
2022-10-05T04:02:41.893Z,5.57
2022-10-05T04:07:47.824Z,5.38
2022-10-05T04:10:41.720Z,7.05
2022-10-05T04:13:28.375Z,7.35
2022-10-05T04:16:24.529Z,5.20
2022-10-05T04:18:55.520Z,4.30
2022-10-05T04:21:37.301Z,7.40
2022-10-05T04:24:13.505Z,6.93
2022-10-05T04:27:08.905Z,7.97
2022-10-05T04:29:54.601Z,10.50
2022-10-05T04:32:34.858Z,10.35
2022-10-05T04:35:30.719Z,6.65
2022-10-05T04:38:36.051Z,6.05
2022-10-05T04:41:23.880Z,4.05
2022-10-05T04:44:22.245Z,7.47
2022-10-05T04:47:05.286Z,6.75
2022-10-05T04:49:51.846Z,5.95
2022-10-05T04:52:56.457Z,6.07
2022-10-05T04:55:43.182Z,7.60
2022-10-05T04:58:38.854Z,7.10
2022-10-05T05:01:30.880Z,9.68
2022-10-05T05:04:12.572Z,6.50
2022-10-05T05:07:12.165Z,5.32
2022-10-05T05:10:01.205Z,5.97
2022-10-05T05:12:29.443Z,6.43
2022-10-05T05:15:18.410Z,7.82
2022-10-05T05:17:56.165Z,6.18
2022-10-05T05:20:38.568Z,4.90
2022-10-05T05:23:40.802Z,5.45
2022-10-05T05:26:47.851Z,6.70
2022-10-05T05:29:44.013Z,6.05
2022-10-05T05:32:30.134Z,9.02
2022-10-05T05:35:20.159Z,6.95
2022-10-05T05:38:19.470Z,4.90
2022-10-05T05:41:09.600Z,9.73
2022-10-05T05:43:56.130Z,6.50
2022-10-05T05:46:45.010Z,5.82
2022-10-05T05:49:23.205Z,6.28
2022-10-05T05:51:57.230Z,7.22
2022-10-05T05:54:35.046Z,7.82
2022-10-05T05:57:20.466Z,7.38
2022-10-05T06:00:09.727Z,7.43
2022-10-05T06:02:55.634Z,5.85
2022-10-05T06:05:48.960Z,12.25
2022-10-05T06:08:37.641Z,6.32
2022-10-05T06:11:31.205Z,6.28
2022-10-05T06:14:10.880Z,8.15
2022-10-05T06:16:47.507Z,10.40
2022-10-05T06:19:22.491Z,9.40
2022-10-05T06:22:23.337Z,5.75
2022-10-05T06:25:13.136Z,4.00
2022-10-05T06:27:59.711Z,7.55
2022-10-05T06:30:44.607Z,5.68
2022-10-05T06:36:01.601Z,8.50
2022-10-05T06:38:58.400Z,8.15
2022-10-05T06:41:41.745Z,9.10
2022-10-05T06:44:32.757Z,6.38
2022-10-05T06:47:45.607Z,6.90
2022-10-05T06:50:22.732Z,6.07
2022-10-05T06:53:03.336Z,5.93
2022-10-05T06:55:51.140Z,6.63
2022-10-05T06:58:33.731Z,10.52
2022-10-05T07:01:11.868Z,4.97
2022-10-05T07:04:00.280Z,5.93
2022-10-05T07:07:32.805Z,7.50
2022-10-05T07:10:29.076Z,8.48
2022-10-05T07:13:05.649Z,9.57
2022-10-05T07:15:51.687Z,5.50
2022-10-05T07:18:37.911Z,6.45
2022-10-05T07:21:36.647Z,5.30
2022-10-05T07:24:23.515Z,4.53
2022-10-05T07:27:14.715Z,6.47
2022-10-05T07:30:01.574Z,6.07
2022-10-05T07:33:06.371Z,8.95
2022-10-05T07:36:01.870Z,7.93
2022-10-05T07:38:57.925Z,6.95
2022-10-05T07:41:41.251Z,9.25
2022-10-05T07:44:21.128Z,6.63
2022-10-05T07:47:05.760Z,4.38
2022-10-05T07:49:49.203Z,7.95
2022-10-05T07:52:48.000Z,7.63
2022-10-05T07:55:33.922Z,7.25
2022-10-05T07:58:32.296Z,7.13
2022-10-05T08:01:24.377Z,8.45
2022-10-05T08:04:13.596Z,5.38
2022-10-05T08:06:50.541Z,7.78
2022-10-05T08:09:37.370Z,6.00
2022-10-05T08:12:20.911Z,8.93
2022-10-05T08:15:21.565Z,7.50
2022-10-05T08:18:01.289Z,5.30
2022-10-05T08:20:47.956Z,7.57
2022-10-05T08:23:27.203Z,4.75
2022-10-05T08:26:28.326Z,7.30
2022-10-05T08:29:12.822Z,6.45
2022-10-05T08:31:50.747Z,8.18
2022-10-05T08:34:27.841Z,7.95
2022-10-05T08:37:33.291Z,8.02
2022-10-05T08:40:31.954Z,8.07
2022-10-05T08:43:19.974Z,7.75
2022-10-05T08:46:01.838Z,6.20
2022-10-05T08:49:03.228Z,5.35
2022-10-05T08:51:50.047Z,8.73
2022-10-05T08:54:25.777Z,9.45
2022-10-05T08:57:05.607Z,6.60
2022-10-05T09:00:03.821Z,6.32
2022-10-05T09:02:59.120Z,7.47
2022-10-05T09:05:27.365Z,8.13
2022-10-05T09:08:22.561Z,7.18
2022-10-05T09:11:11.361Z,8.70
2022-10-05T09:13:54.719Z,5.32
2022-10-05T09:16:51.679Z,6.45
2022-10-05T09:19:38.323Z,10.68
2022-10-05T09:22:51.128Z,8.20
2022-10-05T09:25:19.500Z,7.45
2022-10-05T09:27:58.748Z,7.30
2022-10-05T09:30:33.925Z,6.72
2022-10-05T09:33:26.854Z,7.18
2022-10-05T09:36:37.417Z,7.70
2022-10-05T09:39:40.641Z,10.52
2022-10-05T09:42:25.175Z,8.38
2022-10-05T09:45:02.702Z,6.38
2022-10-05T09:48:00.776Z,10.60
2022-10-05T09:51:05.470Z,5.85
2022-10-05T09:53:53.905Z,6.80
2022-10-05T09:56:51.046Z,11.73
2022-10-05T09:59:49.040Z,6.30
2022-10-05T10:02:46.457Z,7.70
2022-10-05T10:05:35.672Z,8.82
2022-10-05T10:08:30.105Z,6.65
2022-10-05T10:11:18.881Z,7.77
2022-10-05T10:14:11.205Z,6.45
2022-10-05T10:17:08.005Z,7.50
2022-10-05T10:19:38.880Z,7.72
2022-10-05T10:22:31.771Z,9.55
2022-10-05T10:25:35.685Z,6.32
2022-10-05T10:28:34.498Z,10.63
2022-10-05T10:31:27.986Z,6.28
2022-10-05T10:34:29.875Z,6.45
2022-10-05T10:37:14.406Z,7.70
2022-10-05T10:40:07.588Z,7.70
2022-10-05T10:42:47.296Z,7.88
2022-10-05T10:45:38.880Z,8.10
2022-10-05T10:48:33.126Z,5.10
2022-10-05T10:51:07.515Z,5.78
2022-10-05T10:54:04.705Z,7.22
2022-10-05T10:57:09.915Z,9.20
2022-10-05T10:59:47.201Z,6.97
2022-10-05T11:02:33.883Z,6.90
2022-10-05T11:05:02.576Z,7.38
2022-10-05T11:07:36.488Z,9.02
2022-10-05T11:10:24.803Z,5.47
2022-10-05T11:13:34.356Z,8.95
2022-10-05T11:16:33.106Z,6.28
2022-10-05T11:19:13.607Z,7.32
2022-10-05T11:21:59.965Z,9.80
2022-10-05T11:24:40.326Z,8.82
2022-10-05T11:27:38.571Z,9.63
2022-10-05T11:30:39.527Z,6.10
2022-10-05T11:33:26.081Z,6.05
2022-10-05T11:36:24.291Z,6.95
2022-10-05T11:39:07.320Z,7.30
2022-10-05T11:41:42.180Z,9.25
2022-10-05T11:44:46.806Z,6.32
2022-10-05T11:47:18.026Z,11.40
2022-10-05T11:49:52.426Z,8.95
2022-10-05T11:52:49.081Z,6.93
2022-10-05T11:55:34.561Z,7.65
2022-10-05T11:58:24.320Z,10.40
2022-10-05T12:01:06.561Z,7.60
2022-10-05T12:04:06.505Z,10.23
2022-10-05T12:06:48.554Z,10.25
2022-10-05T12:10:11.699Z,7.35
2022-10-05T12:13:05.284Z,7.30
2022-10-05T12:15:42.746Z,7.80
2022-10-05T12:18:18.509Z,7.63
2022-10-05T12:20:52.966Z,5.75
2022-10-05T12:23:38.210Z,6.55
2022-10-05T12:26:13.601Z,8.15
2022-10-05T12:28:54.880Z,10.60
2022-10-05T12:31:32.372Z,4.80
2022-10-05T12:34:22.366Z,8.68
2022-10-05T12:37:05.045Z,10.25
2022-10-05T12:39:57.442Z,7.68
2022-10-05T12:42:31.201Z,5.53
2022-10-05T12:45:10.191Z,9.65
2022-10-05T12:47:49.228Z,7.82
2022-10-05T12:50:19.836Z,8.05
2022-10-05T12:53:08.485Z,8.02
2022-10-05T12:55:36.764Z,5.40
2022-10-05T12:58:30.103Z,8.38
2022-10-05T13:01:24.885Z,5.30
2022-10-05T13:04:01.930Z,4.15
2022-10-05T13:06:39.493Z,6.15
2022-10-05T13:09:13.445Z,6.15
2022-10-05T13:11:52.805Z,8.60
2022-10-05T13:14:44.376Z,6.05
2022-10-05T13:17:40.166Z,5.22
2022-10-05T13:20:36.961Z,6.25
2022-10-05T13:23:24.146Z,5.80
2022-10-05T13:26:02.713Z,7.32
2022-10-05T13:29:04.487Z,6.75
2022-10-05T13:31:43.740Z,5.60
2022-10-05T13:34:14.886Z,9.77
2022-10-05T13:36:43.045Z,6.18
2022-10-05T13:39:29.765Z,4.53
2022-10-05T13:42:16.785Z,5.22
2022-10-05T13:44:47.660Z,5.80
2022-10-05T13:47:30.885Z,7.55
2022-10-05T13:50:08.482Z,6.10
2022-10-05T13:53:11.370Z,4.82
2022-10-05T13:55:50.034Z,8.75
2022-10-05T13:58:37.570Z,8.95
2022-10-05T14:01:14.346Z,5.50
2022-10-05T14:04:02.880Z,6.07
2022-10-05T14:06:34.051Z,6.88
2022-10-05T14:09:02.551Z,6.63
2022-10-05T14:11:36.485Z,7.28
2022-10-05T14:14:26.410Z,8.80
2022-10-05T14:16:58.047Z,15.05
2022-10-05T14:19:27.812Z,11.55
2022-10-05T14:22:12.425Z,14.65
2022-10-05T14:25:03.821Z,11.57
2022-10-05T14:27:49.101Z,14.25
2022-10-05T14:30:17.443Z,13.32
2022-10-05T14:32:57.724Z,13.70
2022-10-05T14:35:44.764Z,16.67
2022-10-05T14:38:21.613Z,16.15
2022-10-05T14:41:07.151Z,12.07
2022-10-05T14:43:36.795Z,17.48
2022-10-05T14:46:28.478Z,14.80
2022-10-05T14:49:26.599Z,14.55
2022-10-05T14:51:56.906Z,14.57
2022-10-05T14:54:36.740Z,14.82
2022-10-05T14:57:11.162Z,13.85
2022-10-05T15:00:18.890Z,12.13
2022-10-05T15:02:58.885Z,13.13
2022-10-05T15:05:34.402Z,15.80
2022-10-05T15:09:09.146Z,17.63
2022-10-05T15:11:52.124Z,11.43
2022-10-05T15:14:33.286Z,15.70
2022-10-05T15:17:17.560Z,14.57
2022-10-05T15:19:54.890Z,13.77
2022-10-05T15:22:32.810Z,15.00
2022-10-05T15:25:18.250Z,15.45
2022-10-05T15:28:07.356Z,19.30
2022-10-05T15:30:48.212Z,20.20
2022-10-05T15:33:37.600Z,14.45
2022-10-05T15:36:39.090Z,17.27
2022-10-05T15:39:33.570Z,25.33
2022-10-05T15:42:39.230Z,17.70
2022-10-05T15:47:54.391Z,20.08
2022-10-05T15:50:46.534Z,28.90
2022-10-05T15:54:19.355Z,20.73
2022-10-05T15:56:58.874Z,17.55
2022-10-05T15:59:53.439Z,23.92
2022-10-05T16:02:34.290Z,19.80
2022-10-05T16:05:18.567Z,22.38
2022-10-05T16:08:13.283Z,25.45
2022-10-05T16:10:47.830Z,23.42
2022-10-05T16:13:46.700Z,27.00
2022-10-05T16:16:43.092Z,27.55
2022-10-05T16:19:25.902Z,23.08
2022-10-05T16:22:48.210Z,25.42
2022-10-05T16:25:29.124Z,23.98
2022-10-05T16:28:21.639Z,20.85
2022-10-05T16:31:13.356Z,17.95
2022-10-05T16:34:00.287Z,22.13
2022-10-05T16:36:46.824Z,20.73
2022-10-05T16:39:26.183Z,24.92
2022-10-05T16:42:23.400Z,22.83
2022-10-05T16:45:24.278Z,29.77
2022-10-05T16:48:21.014Z,24.85
2022-10-05T16:51:08.680Z,24.42
2022-10-05T16:53:48.644Z,22.70
2022-10-05T16:56:22.084Z,23.60
2022-10-05T16:59:08.314Z,28.77
2022-10-05T17:01:43.242Z,27.33
2022-10-05T17:04:29.602Z,24.25
2022-10-05T17:07:18.086Z,21.02
2022-10-05T17:09:51.990Z,30.88
2022-10-05T17:12:55.680Z,21.75
2022-10-05T17:16:01.571Z,24.63
2022-10-05T17:19:08.230Z,26.98
2022-10-05T17:22:05.945Z,24.05
2022-10-05T17:24:53.271Z,26.92
2022-10-05T17:27:54.100Z,25.70
2022-10-05T17:30:29.452Z,28.48
2022-10-05T17:33:05.421Z,23.70
2022-10-05T17:36:09.924Z,24.27
2022-10-05T17:38:51.630Z,25.40
2022-10-05T17:41:25.459Z,27.85
2022-10-05T17:44:16.969Z,25.30
2022-10-05T17:46:48.963Z,26.08
2022-10-05T17:50:15.462Z,23.33
2022-10-05T17:53:03.975Z,27.83
2022-10-05T17:55:35.200Z,26.70
2022-10-05T17:58:36.030Z,25.08
2022-10-05T18:01:25.945Z,24.95
2022-10-05T18:03:56.270Z,30.08
2022-10-05T18:06:29.195Z,29.70
2022-10-05T18:09:18.410Z,22.98
2022-10-05T18:12:07.864Z,22.20
2022-10-05T18:15:08.204Z,23.13
2022-10-05T18:17:47.150Z,23.95
2022-10-05T18:20:29.771Z,28.40
2022-10-05T18:23:10.591Z,22.45
2022-10-05T18:25:44.320Z,26.77
2022-10-05T18:28:15.242Z,26.63
2022-10-05T18:31:10.843Z,18.95
2022-10-05T18:33:50.910Z,16.77
2022-10-05T18:36:46.085Z,17.88
2022-10-05T18:42:03.210Z,16.77
2022-10-05T18:44:50.884Z,22.20
2022-10-05T18:48:07.672Z,20.98
2022-10-05T18:50:49.760Z,22.52
2022-10-05T18:53:45.926Z,18.88
2022-10-05T18:56:31.355Z,18.20
2022-10-05T18:59:19.438Z,19.63
2022-10-05T19:02:21.376Z,16.23
2022-10-05T19:04:52.460Z,16.42
2022-10-05T19:08:02.027Z,14.88
2022-10-05T19:10:42.245Z,13.25
2022-10-05T19:13:19.370Z,18.25
2022-10-05T19:16:13.209Z,17.10
2022-10-05T19:18:53.100Z,13.00
2022-10-05T19:21:40.496Z,18.65
2022-10-05T19:24:23.690Z,19.00
2022-10-05T19:27:35.956Z,13.80
2022-10-05T19:30:24.014Z,15.88
2022-10-05T19:33:01.396Z,16.88
2022-10-05T19:35:29.604Z,16.15
2022-10-05T19:38:15.402Z,10.57
2022-10-05T19:41:13.775Z,12.27
2022-10-05T19:43:56.651Z,12.02
2022-10-05T19:47:00.865Z,12.02
2022-10-05T19:49:53.852Z,12.38
2022-10-05T19:52:29.280Z,13.60
2022-10-05T19:55:14.895Z,12.60
2022-10-05T19:57:50.564Z,11.43
2022-10-05T20:00:32.119Z,14.75
2022-10-05T20:03:27.505Z,9.80
2022-10-05T20:06:03.469Z,9.60
2022-10-05T20:08:48.809Z,8.20
2022-10-05T20:11:22.688Z,10.90
2022-10-05T20:13:53.666Z,12.95
2022-10-05T20:16:47.363Z,10.23
2022-10-05T20:19:51.980Z,12.35
2022-10-05T20:22:47.199Z,12.50
2022-10-05T20:25:20.651Z,7.10
2022-10-05T20:27:51.684Z,10.23
2022-10-05T20:30:25.706Z,9.05
2022-10-05T20:33:00.485Z,9.27
2022-10-05T20:35:33.415Z,10.85
2022-10-05T20:38:01.921Z,12.07
2022-10-05T20:40:31.846Z,7.30
2022-10-05T20:43:00.166Z,7.95
2022-10-05T20:45:28.472Z,7.65
2022-10-05T20:47:56.827Z,7.32
2022-10-05T20:50:25.125Z,8.65
2022-10-05T20:52:53.715Z,7.45
2022-10-05T20:55:21.916Z,5.93
2022-10-05T20:57:50.111Z,5.30
2022-10-05T21:00:18.560Z,5.40
2022-10-05T21:02:47.851Z,8.85
2022-10-05T21:05:19.053Z,6.45
2022-10-05T21:07:47.820Z,7.18
2022-10-05T21:10:16.165Z,7.07
2022-10-05T21:12:44.686Z,4.80
2022-10-05T21:15:13.306Z,5.57
2022-10-05T21:17:41.600Z,5.90
2022-10-05T21:20:12.158Z,4.65
2022-10-05T21:22:40.439Z,5.63
2022-10-05T21:25:09.930Z,6.45
2022-10-05T21:27:38.176Z,5.07
2022-10-05T21:30:07.211Z,4.15
2022-10-05T21:32:36.870Z,4.78
2022-10-05T21:35:07.143Z,4.45
2022-10-05T21:37:35.465Z,4.00
2022-10-05T21:40:06.240Z,4.68
2022-10-05T21:42:34.599Z,4.22
2022-10-05T21:45:02.986Z,5.00
2022-10-05T21:47:31.715Z,5.38
2022-10-05T21:50:01.424Z,6.70
2022-10-05T21:52:29.715Z,3.80
2022-10-05T21:55:00.294Z,4.93
2022-10-05T21:57:28.645Z,6.32
2022-10-05T21:59:57.422Z,3.65
2022-10-05T22:02:25.763Z,3.28
2022-10-05T22:04:54.891Z,4.68
2022-10-05T22:07:23.206Z,3.10
2022-10-05T22:09:52.646Z,4.25
2022-10-05T22:12:21.401Z,3.65
2022-10-05T22:14:50.567Z,3.40
2022-10-05T22:17:30.500Z,2.55
2022-10-05T22:20:00.489Z,3.38
2022-10-05T22:22:29.924Z,3.35
2022-10-05T22:24:58.144Z,4.00
2022-10-05T22:27:29.279Z,2.80
2022-10-05T22:29:59.209Z,2.78
2022-10-05T22:32:27.950Z,3.00
2022-10-05T22:34:56.170Z,5.22
2022-10-05T22:37:25.132Z,2.53
2022-10-05T22:39:56.126Z,2.88
2022-10-05T22:42:24.480Z,3.15
2022-10-05T22:44:55.526Z,3.38
2022-10-05T22:47:23.850Z,2.30
2022-10-05T22:49:52.495Z,3.00
2022-10-05T22:52:20.811Z,3.67
2022-10-05T22:54:49.123Z,2.75
2022-10-05T22:57:17.569Z,1.95
2022-10-05T22:59:45.927Z,4.60
2022-10-05T23:02:15.002Z,4.07
2022-10-05T23:04:43.271Z,3.50
2022-10-05T23:07:11.555Z,2.70
2022-10-05T23:09:40.011Z,3.42
2022-10-05T23:12:08.321Z,3.47
2022-10-05T23:14:36.961Z,2.85
2022-10-05T23:17:05.625Z,2.78
2022-10-05T23:19:34.025Z,3.63
2022-10-05T23:22:03.371Z,2.92
2022-10-05T23:24:31.666Z,3.92
2022-10-05T23:27:00.011Z,3.58
2022-10-05T23:29:29.771Z,2.97
2022-10-05T23:31:58.090Z,3.30
2022-10-05T23:34:28.170Z,3.42
2022-10-05T23:36:56.496Z,3.47
2022-10-05T23:39:28.005Z,2.65
2022-10-05T23:41:56.315Z,5.05
2022-10-05T23:44:24.790Z,3.33
2022-10-05T23:46:53.134Z,3.13
2022-10-05T23:49:24.475Z,4.65
2022-10-05T23:51:52.806Z,3.75
2022-10-05T23:54:21.125Z,3.90
2022-10-05T23:56:49.438Z,3.03
2022-10-05T23:59:17.695Z,4.38
